Pagina principale
METAR-TAF:

METAR-TAF

Aeroporti :

Aeroporto di Gran Canaria

Gran Canaria, Spagna

latitudine: 27-56N, longitudine: 015-23W, altezza: 23 m

Osservazione

Il bollettino è stato emesso 37 minuti fa, alle 13:30 UTC
Vento 22 kt da nord/nord-est
Temperature 25°C
Umidità 57%
Pressione 1020 hPa
Visibilità 10 km o più
Poco nuvoloso ad un'altezza di 2500 ft

METAR: GCLP 141330Z 03022KT 9999 FEW025 25/16 Q1020 NOSIG

Ora: 15:07 (14:07 UTC)

Previsione

Il bollettino è stato emesso 6 ore e 7 minuti fa, alle 08:00 UTC
Previsione valida dal 14 alle 09 UTC al 15 alle 09 UTC
Vento 17 kt da nord/nord-est
Visibilità 10 km o più
Nubi sparse ad un'altezza di 3000 ft
Probabilità 30% :
Temporaneamente
dal 14 alle 12 UTC al 14 alle 21 UTC
Visibilità: 4900 m
pioviggine

TAF: GCLP 140800Z 1409/1509 02017KT 9999 SCT030 TX24/1414Z TN19/1505Z PROB30 TEMPO 1412/1421 4900 DZ

Osservazioni e previsioni meteorologiche di più di 4000 aeroporti (messaggi METAR e TAF).

Le stazioni disponibili sono rappresentate dai dischi gialli e rossi sulla carta.

Puntare il mouse per vedere il nome della stazione.

Clicca sopra per visualizzare le osservazioni e previsioni meteorologiche.

Per cambiare la mappa : fare clic sui pulsanti verdi con una croce nera per ingrandire, il pulsante verde con un trattino per diminuire, o sulla freccia verde per le mappe adiacenti.


METAR-TAF: